CheckWX is a tool to help pilots better visualize weather data.  It is not intended as a substitute for an official pre-flight weather briefing.

06:24:13 UTC

KMKT TAF
Mankato Regional Airport
Mankato, Minnesota, USA
KMKT 260520Z 2606/2706 25005KT P6SM SKC FM261300 22005KT P6SM BKN150 FM261800 17008KT P6SM FEW050 BKN150

Jun-26@
06:00 UTC

Jun-26 @ 06:00 UTC

Jun-26@
13:00 UTC

Jun-26 @ 13:00 UTC

KMKT 260520Z 2606/2706 25005KT P6SM SKC
Wind
  • 250° at 5 KTS
Cloud Levels
  • Clear skies

Jun-26@
13:00 UTC

Jun-26 @ 13:00 UTC

Jun-26@
18:00 UTC

Jun-26 @ 18:00 UTC

FM261300 22005KT P6SM BKN150

From

From Standard forecast or significant change

Wind
  • 220° at 5 KTS
Cloud Levels
  • Broken at 15,000' AGL

Jun-26@
18:00 UTC

Jun-26 @ 18:00 UTC

Jun-27@
06:00 UTC

Jun-27 @ 06:00 UTC

FM261800 17008KT P6SM FEW050 BKN150

From

From Standard forecast or significant change

Wind
  • 170° at 8 KTS
Cloud Levels
  • Few at 5,000' AGL
  • Broken at 15,000' AGL